Corning, Arkansas
Current Conditions -  °F | °C
As of 1:55 PM on Monday 22 Dec 2014 (Local Time) from K4M9 Reporting Station
Haze Haze  
Wind Chill: 52°   Ceiling: Unl
Heat Index: 52°   Visibility: 1.7mi
Dew Point: 52°   Wind: 14mph
Humidity: 100%   Direction: 170°S
Pressure: 29.59"   Gusts: NA
Location:  36.41°N, 90.58°W
Report Text: K4M9 221955Z AUTO 17012KT 1 3/4SM BR CLR 11/11 A2959 RMK AO2
Loading
Personal Weather Stations






























Interactive Weather Map New forecast layout! Learn more

10-Day Weather Forecast

Advertisements
Track Severe Weather on mobile